TAP89WT LPPT-LPMA
Flight info
| Callsign | TAP89WT |
|---|---|
| Flight time | 1h 30m |
| Altitude | 31000 |
| Route | ULVOT DCT GALPA DCT RAKUN |
| Aircraft | A320/M-SDE3FGHIRWY/LB1 |
Departure
| Time | 2026-05-07 20:02 |
|---|---|
| Airport | Lisbon Humberto Delgado Airport (LPPT) |
Arrival
| Time | 2026-05-07 21:32 |
|---|---|
| Airport | Cristiano Ronaldo International Airport (LPMA) |
| Time | Latitude | Longitude | Altitude | Speed | Heading |
|---|---|---|---|---|---|
| 2026-05-07 19:05 | 38.76947 | -9.13613 | 347 ft | 0 kts | 261° |
| 2026-05-07 19:44 | 38.76951 | -9.13587 | 351 ft | 4 kts | 252° |
| 2026-05-07 19:45 | 38.76962 | -9.13555 | 357 ft | 4 kts | 234° |
| 2026-05-07 19:45 | 38.76980 | -9.13531 | 353 ft | 4 kts | 206° |
| 2026-05-07 19:45 | 38.77000 | -9.13525 | 355 ft | 1 kts | 167° |
| 2026-05-07 19:45 | 38.77001 | -9.13525 | 355 ft | 0 kts | 167° |
| 2026-05-07 19:55 | 38.76991 | -9.13522 | 347 ft | 5 kts | 167° |
| 2026-05-07 19:55 | 38.76925 | -9.13504 | 351 ft | 13 kts | 168° |
| 2026-05-07 19:55 | 38.76845 | -9.13481 | 347 ft | 11 kts | 165° |
| 2026-05-07 19:56 | 38.76777 | -9.13459 | 347 ft | 9 kts | 166° |
| 2026-05-07 19:56 | 38.76719 | -9.13444 | 354 ft | 8 kts | 169° |
| 2026-05-07 19:56 | 38.76665 | -9.13453 | 356 ft | 8 kts | 232° |
| 2026-05-07 19:56 | 38.76655 | -9.13527 | 347 ft | 10 kts | 276° |
| 2026-05-07 19:57 | 38.76637 | -9.13624 | 352 ft | 13 kts | 251° |
| 2026-05-07 19:57 | 38.76613 | -9.13750 | 352 ft | 16 kts | 259° |
| 2026-05-07 19:57 | 38.76586 | -9.13904 | 356 ft | 19 kts | 257° |
| 2026-05-07 19:57 | 38.76561 | -9.14068 | 346 ft | 19 kts | 258° |
| 2026-05-07 19:58 | 38.76588 | -9.14215 | 351 ft | 8 kts | 291° |
| 2026-05-07 19:58 | 38.76606 | -9.14272 | 346 ft | 0 kts | 291° |
| 2026-05-07 19:59 | 38.76606 | -9.14273 | 345 ft | 0 kts | 291° |
| 2026-05-07 19:59 | 38.76614 | -9.14299 | 338 ft | 8 kts | 293° |
| 2026-05-07 20:00 | 38.76669 | -9.14362 | 337 ft | 13 kts | 348° |
| 2026-05-07 20:00 | 38.76721 | -9.14348 | 338 ft | 0 kts | 21° |
| 2026-05-07 20:01 | 38.76759 | -9.14330 | 336 ft | 25 kts | 20° |
| 2026-05-07 20:01 | 38.77157 | -9.14115 | 348 ft | 95 kts | 22° |
| 2026-05-07 20:01 | 38.77943 | -9.13698 | 351 ft | 147 kts | 22° |
| 2026-05-07 20:02 | 38.78998 | -9.13142 | 590 ft | 166 kts | 18° |
| 2026-05-07 20:02 | 38.80059 | -9.12618 | 1297 ft | 164 kts | 19° |
| 2026-05-07 20:02 | 38.81172 | -9.12042 | 1609 ft | 185 kts | 20° |
| 2026-05-07 20:02 | 38.82364 | -9.11175 | 1916 ft | 212 kts | 28° |
| 2026-05-07 20:03 | 38.83686 | -9.10130 | 2295 ft | 235 kts | 28° |
| 2026-05-07 20:03 | 38.85152 | -9.08981 | 2781 ft | 255 kts | 29° |
| 2026-05-07 20:03 | 38.86683 | -9.07784 | 3568 ft | 261 kts | 29° |
| 2026-05-07 20:03 | 38.88118 | -9.06302 | 4322 ft | 272 kts | 53° |
| 2026-05-07 20:04 | 38.88768 | -9.04017 | 5084 ft | 279 kts | 89° |
| 2026-05-07 20:04 | 38.88395 | -9.01602 | 5931 ft | 277 kts | 116° |
| 2026-05-07 20:04 | 38.87488 | -8.99440 | 6810 ft | 274 kts | 130° |
| 2026-05-07 20:04 | 38.86048 | -8.97918 | 7618 ft | 269 kts | 156° |
| 2026-05-07 20:05 | 38.84296 | -8.97153 | 8482 ft | 267 kts | 171° |
| 2026-05-07 20:05 | 38.82444 | -8.97044 | 9317 ft | 268 kts | 187° |
| 2026-05-07 20:05 | 38.80649 | -8.97694 | 10094 ft | 271 kts | 201° |
| 2026-05-07 20:05 | 38.78835 | -8.98643 | 10385 ft | 292 kts | 201° |
| 2026-05-07 20:06 | 38.76882 | -8.99681 | 10646 ft | 312 kts | 201° |
| 2026-05-07 20:06 | 38.74878 | -9.00757 | 11237 ft | 319 kts | 201° |
| 2026-05-07 20:06 | 38.72817 | -9.01865 | 11947 ft | 323 kts | 201° |
| 2026-05-07 20:06 | 38.70736 | -9.02981 | 12671 ft | 325 kts | 201° |
| 2026-05-07 20:07 | 38.68638 | -9.04103 | 13390 ft | 328 kts | 201° |
| 2026-05-07 20:07 | 38.66518 | -9.05239 | 14077 ft | 331 kts | 202° |
| 2026-05-07 20:07 | 38.64435 | -9.06508 | 14671 ft | 335 kts | 212° |
| 2026-05-07 20:07 | 38.62692 | -9.08526 | 15272 ft | 340 kts | 226° |
| 2026-05-07 20:08 | 38.61122 | -9.10799 | 15949 ft | 342 kts | 226° |
| 2026-05-07 20:08 | 38.59552 | -9.13094 | 16604 ft | 343 kts | 227° |
| 2026-05-07 20:08 | 38.57978 | -9.15403 | 17235 ft | 345 kts | 227° |
| 2026-05-07 20:08 | 38.56399 | -9.17719 | 17856 ft | 347 kts | 227° |
| 2026-05-07 20:09 | 38.54802 | -9.20059 | 18435 ft | 350 kts | 227° |
| 2026-05-07 20:09 | 38.53198 | -9.22404 | 18938 ft | 352 kts | 227° |
| 2026-05-07 20:09 | 38.51580 | -9.24768 | 19436 ft | 354 kts | 227° |
| 2026-05-07 20:10 | 38.48331 | -9.29507 | 20405 ft | 360 kts | 227° |
| 2026-05-07 20:10 | 38.46674 | -9.31919 | 20871 ft | 363 kts | 227° |
| 2026-05-07 20:10 | 38.45001 | -9.34352 | 21334 ft | 365 kts | 227° |
| 2026-05-07 20:10 | 38.43316 | -9.36801 | 21792 ft | 368 kts | 227° |
| 2026-05-07 20:11 | 38.41616 | -9.39272 | 22239 ft | 371 kts | 227° |
| 2026-05-07 20:11 | 38.39906 | -9.41753 | 22685 ft | 374 kts | 227° |
| 2026-05-07 20:11 | 38.38182 | -9.44254 | 23102 ft | 377 kts | 227° |
| 2026-05-07 20:11 | 38.36447 | -9.46775 | 23560 ft | 380 kts | 227° |
| 2026-05-07 20:12 | 38.34702 | -9.49306 | 23959 ft | 381 kts | 227° |
| 2026-05-07 20:12 | 38.32949 | -9.51844 | 24345 ft | 382 kts | 227° |
| 2026-05-07 20:12 | 38.31183 | -9.54399 | 24715 ft | 384 kts | 227° |
| 2026-05-07 20:12 | 38.29413 | -9.56956 | 25086 ft | 386 kts | 227° |
| 2026-05-07 20:13 | 38.27638 | -9.59519 | 25447 ft | 387 kts | 227° |
| 2026-05-07 20:13 | 38.25873 | -9.62064 | 25798 ft | 389 kts | 227° |
| 2026-05-07 20:13 | 38.24081 | -9.64643 | 26174 ft | 390 kts | 227° |
| 2026-05-07 20:13 | 38.22281 | -9.67229 | 26544 ft | 391 kts | 227° |
| 2026-05-07 20:14 | 38.20474 | -9.69825 | 26902 ft | 392 kts | 227° |
| 2026-05-07 20:14 | 38.18664 | -9.72429 | 27252 ft | 394 kts | 227° |
| 2026-05-07 20:14 | 38.16843 | -9.75050 | 27594 ft | 395 kts | 227° |
| 2026-05-07 20:14 | 38.15020 | -9.77671 | 27938 ft | 397 kts | 227° |
| 2026-05-07 20:15 | 38.13179 | -9.80314 | 28269 ft | 398 kts | 227° |
| 2026-05-07 20:15 | 38.11335 | -9.82956 | 28615 ft | 400 kts | 227° |
| 2026-05-07 20:15 | 38.09488 | -9.85603 | 29012 ft | 400 kts | 226° |
| 2026-05-07 20:15 | 38.07641 | -9.88250 | 29355 ft | 401 kts | 226° |
| 2026-05-07 20:16 | 38.05786 | -9.90902 | 29661 ft | 402 kts | 226° |
| 2026-05-07 20:16 | 38.03952 | -9.93522 | 29944 ft | 404 kts | 226° |
| 2026-05-07 20:16 | 38.02078 | -9.96193 | 30198 ft | 405 kts | 226° |
| 2026-05-07 20:16 | 38.00196 | -9.98869 | 30454 ft | 406 kts | 226° |
| 2026-05-07 20:17 | 37.98315 | -10.01543 | 30718 ft | 407 kts | 226° |
| 2026-05-07 20:17 | 37.96432 | -10.04224 | 30917 ft | 406 kts | 226° |
| 2026-05-07 20:17 | 37.94581 | -10.06860 | 30961 ft | 393 kts | 226° |
| 2026-05-07 20:18 | 37.91012 | -10.11940 | 30961 ft | 382 kts | 226° |
| 2026-05-07 20:18 | 37.87483 | -10.16953 | 30961 ft | 381 kts | 226° |
| 2026-05-07 20:19 | 37.83952 | -10.21941 | 30974 ft | 380 kts | 226° |
| 2026-05-07 20:19 | 37.80419 | -10.26924 | 30964 ft | 380 kts | 226° |
| 2026-05-07 20:20 | 37.76897 | -10.31897 | 30959 ft | 379 kts | 226° |
| 2026-05-07 20:20 | 37.73388 | -10.36859 | 30955 ft | 379 kts | 226° |
| 2026-05-07 20:21 | 37.69885 | -10.41787 | 30964 ft | 378 kts | 226° |
| 2026-05-07 20:21 | 37.66373 | -10.46727 | 30965 ft | 378 kts | 226° |
| 2026-05-07 20:22 | 37.62866 | -10.51652 | 30960 ft | 377 kts | 226° |
| 2026-05-07 20:22 | 37.59353 | -10.56572 | 30960 ft | 377 kts | 225° |
| 2026-05-07 20:23 | 37.55842 | -10.61480 | 30982 ft | 376 kts | 225° |
| 2026-05-07 20:23 | 37.52344 | -10.66372 | 30976 ft | 376 kts | 225° |
| 2026-05-07 20:24 | 37.48840 | -10.71253 | 30969 ft | 375 kts | 225° |
| 2026-05-07 20:24 | 37.45338 | -10.76121 | 30954 ft | 375 kts | 225° |
| 2026-05-07 20:25 | 37.41847 | -10.80981 | 30957 ft | 374 kts | 225° |
| 2026-05-07 20:25 | 37.38352 | -10.85844 | 30953 ft | 374 kts | 225° |
| 2026-05-07 20:26 | 37.34857 | -10.90696 | 30949 ft | 374 kts | 225° |
| 2026-05-07 20:26 | 37.31360 | -10.95531 | 30981 ft | 374 kts | 224° |
| 2026-05-07 20:27 | 37.27891 | -11.00320 | 30970 ft | 373 kts | 224° |
| 2026-05-07 20:27 | 37.24402 | -11.05142 | 30968 ft | 372 kts | 224° |
| 2026-05-07 20:28 | 37.20912 | -11.09953 | 30958 ft | 372 kts | 224° |
| 2026-05-07 20:28 | 37.17421 | -11.14748 | 30952 ft | 371 kts | 224° |
| 2026-05-07 20:29 | 37.14526 | -11.18719 | 30951 ft | 371 kts | 224° |
| 2026-05-07 20:29 | 37.10485 | -11.24264 | 30962 ft | 370 kts | 224° |
| 2026-05-07 20:30 | 37.07021 | -11.29020 | 30951 ft | 369 kts | 224° |
| 2026-05-07 20:30 | 37.04113 | -11.32994 | 31005 ft | 369 kts | 224° |
| 2026-05-07 20:31 | 37.00675 | -11.37696 | 30990 ft | 368 kts | 224° |
| 2026-05-07 20:31 | 36.97217 | -11.42418 | 30990 ft | 367 kts | 224° |
| 2026-05-07 20:32 | 36.93764 | -11.47110 | 30981 ft | 366 kts | 224° |
| 2026-05-07 20:32 | 36.90321 | -11.51794 | 30962 ft | 366 kts | 224° |
| 2026-05-07 20:33 | 36.86872 | -11.56481 | 30964 ft | 366 kts | 224° |
| 2026-05-07 20:33 | 36.83428 | -11.61150 | 30961 ft | 366 kts | 224° |
| 2026-05-07 20:34 | 36.79998 | -11.65792 | 30960 ft | 366 kts | 224° |
| 2026-05-07 20:34 | 36.76547 | -11.70456 | 30957 ft | 366 kts | 224° |
| 2026-05-07 20:35 | 36.73096 | -11.75125 | 30957 ft | 366 kts | 224° |
| 2026-05-07 20:35 | 36.69645 | -11.79789 | 30957 ft | 366 kts | 224° |
| 2026-05-07 20:36 | 36.66190 | -11.84444 | 30963 ft | 366 kts | 223° |
| 2026-05-07 20:36 | 36.62724 | -11.89104 | 30957 ft | 366 kts | 223° |
| 2026-05-07 20:37 | 36.59259 | -11.93756 | 30962 ft | 366 kts | 223° |
| 2026-05-07 20:37 | 36.55804 | -11.98400 | 30963 ft | 366 kts | 223° |
| 2026-05-07 20:38 | 36.52364 | -12.03014 | 30966 ft | 366 kts | 223° |
| 2026-05-07 20:38 | 36.48889 | -12.07649 | 31003 ft | 366 kts | 223° |
| 2026-05-07 20:39 | 36.45425 | -12.12282 | 30994 ft | 366 kts | 223° |
| 2026-05-07 20:39 | 36.41958 | -12.16905 | 30988 ft | 366 kts | 223° |
| 2026-05-07 20:40 | 36.38484 | -12.21530 | 30980 ft | 366 kts | 223° |
| 2026-05-07 20:40 | 36.35015 | -12.26142 | 30965 ft | 365 kts | 223° |
| 2026-05-07 20:41 | 36.31551 | -12.30743 | 30974 ft | 364 kts | 223° |
| 2026-05-07 20:41 | 36.28090 | -12.35331 | 30977 ft | 364 kts | 223° |
| 2026-05-07 20:42 | 36.24661 | -12.39876 | 30975 ft | 363 kts | 223° |
| 2026-05-07 20:42 | 36.21211 | -12.44447 | 30981 ft | 363 kts | 223° |
| 2026-05-07 20:43 | 36.17752 | -12.49015 | 30972 ft | 363 kts | 222° |
| 2026-05-07 20:43 | 36.14297 | -12.53560 | 30963 ft | 363 kts | 222° |
| 2026-05-07 20:44 | 36.10833 | -12.58116 | 30963 ft | 363 kts | 222° |
| 2026-05-07 20:44 | 36.07367 | -12.62665 | 30941 ft | 363 kts | 223° |
| 2026-05-07 20:45 | 36.03910 | -12.67216 | 30948 ft | 363 kts | 223° |
| 2026-05-07 20:45 | 36.00449 | -12.71759 | 30951 ft | 363 kts | 222° |
| 2026-05-07 20:46 | 35.96978 | -12.76297 | 30955 ft | 363 kts | 222° |
| 2026-05-07 20:46 | 35.93536 | -12.80807 | 30976 ft | 365 kts | 222° |
| 2026-05-07 20:47 | 35.90051 | -12.85363 | 30959 ft | 366 kts | 222° |
| 2026-05-07 20:47 | 35.86544 | -12.89941 | 30955 ft | 367 kts | 222° |
| 2026-05-07 20:48 | 35.83037 | -12.94509 | 30954 ft | 367 kts | 222° |
| 2026-05-07 20:48 | 35.79518 | -12.99077 | 30953 ft | 367 kts | 222° |
| 2026-05-07 20:49 | 35.75999 | -13.03639 | 30950 ft | 367 kts | 223° |
| 2026-05-07 20:49 | 35.72483 | -13.08215 | 30950 ft | 368 kts | 223° |
| 2026-05-07 20:50 | 35.68981 | -13.12754 | 30953 ft | 368 kts | 223° |
| 2026-05-07 20:50 | 35.65446 | -13.17322 | 30961 ft | 370 kts | 224° |
| 2026-05-07 20:51 | 35.61892 | -13.21912 | 30945 ft | 372 kts | 224° |
| 2026-05-07 20:51 | 35.58319 | -13.26530 | 30942 ft | 373 kts | 224° |
| 2026-05-07 20:52 | 35.54740 | -13.31147 | 30945 ft | 374 kts | 224° |
| 2026-05-07 20:52 | 35.51145 | -13.35767 | 30945 ft | 374 kts | 224° |
| 2026-05-07 20:53 | 35.47544 | -13.40398 | 30941 ft | 374 kts | 225° |
| 2026-05-07 20:53 | 35.43971 | -13.44988 | 30947 ft | 374 kts | 224° |
| 2026-05-07 20:54 | 35.40362 | -13.49598 | 30964 ft | 374 kts | 224° |
| 2026-05-07 20:54 | 35.36743 | -13.54235 | 30942 ft | 377 kts | 227° |
| 2026-05-07 20:55 | 35.33097 | -13.58901 | 30934 ft | 380 kts | 227° |
| 2026-05-07 20:55 | 35.29422 | -13.63579 | 30944 ft | 382 kts | 227° |
| 2026-05-07 20:56 | 35.25763 | -13.68242 | 30946 ft | 383 kts | 227° |
| 2026-05-07 20:56 | 35.22070 | -13.72951 | 30941 ft | 384 kts | 227° |
| 2026-05-07 20:57 | 35.18364 | -13.77653 | 30942 ft | 384 kts | 227° |
| 2026-05-07 20:57 | 35.14653 | -13.82365 | 30951 ft | 384 kts | 227° |
| 2026-05-07 20:58 | 35.10930 | -13.87069 | 30955 ft | 385 kts | 229° |
| 2026-05-07 20:58 | 35.07193 | -13.91803 | 30934 ft | 388 kts | 229° |
| 2026-05-07 20:59 | 35.03434 | -13.96559 | 30933 ft | 390 kts | 229° |
| 2026-05-07 20:59 | 34.99670 | -14.01300 | 30936 ft | 392 kts | 229° |
| 2026-05-07 21:00 | 34.95870 | -14.06079 | 30939 ft | 393 kts | 229° |
| 2026-05-07 21:00 | 34.92060 | -14.10867 | 30931 ft | 393 kts | 230° |
| 2026-05-07 21:01 | 34.88250 | -14.15657 | 30939 ft | 394 kts | 229° |
| 2026-05-07 21:01 | 34.84431 | -14.20446 | 30946 ft | 394 kts | 229° |
| 2026-05-07 21:02 | 34.80612 | -14.25238 | 30940 ft | 395 kts | 231° |
| 2026-05-07 21:02 | 34.76769 | -14.30054 | 30947 ft | 397 kts | 231° |
| 2026-05-07 21:03 | 34.72905 | -14.34888 | 30941 ft | 399 kts | 231° |
| 2026-05-07 21:03 | 34.69030 | -14.39727 | 30949 ft | 400 kts | 231° |
| 2026-05-07 21:04 | 34.65148 | -14.44566 | 30946 ft | 400 kts | 231° |
| 2026-05-07 21:04 | 34.61247 | -14.49406 | 30937 ft | 400 kts | 231° |
| 2026-05-07 21:05 | 34.57355 | -14.54234 | 30945 ft | 400 kts | 231° |
| 2026-05-07 21:05 | 34.53490 | -14.59030 | 30936 ft | 400 kts | 232° |
| 2026-05-07 21:06 | 34.49601 | -14.63846 | 30949 ft | 399 kts | 232° |
| 2026-05-07 21:06 | 34.45717 | -14.68662 | 30955 ft | 399 kts | 232° |
| 2026-05-07 21:07 | 34.41829 | -14.73466 | 30956 ft | 399 kts | 232° |
| 2026-05-07 21:07 | 34.37932 | -14.78255 | 30958 ft | 399 kts | 232° |
| 2026-05-07 21:08 | 34.34039 | -14.83037 | 30960 ft | 399 kts | 232° |
| 2026-05-07 21:08 | 34.30159 | -14.87808 | 30947 ft | 398 kts | 232° |
| 2026-05-07 21:09 | 34.26280 | -14.92579 | 30956 ft | 397 kts | 232° |
| 2026-05-07 21:09 | 34.22413 | -14.97336 | 30945 ft | 396 kts | 232° |
| 2026-05-07 21:10 | 34.18536 | -15.02072 | 30970 ft | 395 kts | 232° |
| 2026-05-07 21:10 | 34.14705 | -15.06753 | 30970 ft | 394 kts | 232° |
| 2026-05-07 21:11 | 34.10858 | -15.11459 | 30960 ft | 393 kts | 232° |
| 2026-05-07 21:11 | 34.05093 | -15.18503 | 30962 ft | 393 kts | 232° |
| 2026-05-07 21:12 | 34.01254 | -15.23180 | 30947 ft | 392 kts | 232° |
| 2026-05-07 21:12 | 33.97405 | -15.27855 | 30973 ft | 398 kts | 232° |
| 2026-05-07 21:13 | 33.93418 | -15.32710 | 30980 ft | 416 kts | 232° |
| 2026-05-07 21:13 | 33.89273 | -15.37739 | 30975 ft | 431 kts | 231° |
| 2026-05-07 21:14 | 33.84993 | -15.42906 | 30981 ft | 438 kts | 231° |
| 2026-05-07 21:14 | 33.82846 | -15.45491 | 30746 ft | 436 kts | 231° |
| 2026-05-07 21:14 | 33.80700 | -15.48071 | 29717 ft | 438 kts | 232° |
| 2026-05-07 21:15 | 33.78539 | -15.50681 | 28488 ft | 442 kts | 231° |
| 2026-05-07 21:15 | 33.76365 | -15.53309 | 27338 ft | 444 kts | 231° |
| 2026-05-07 21:15 | 33.74181 | -15.55944 | 26196 ft | 446 kts | 231° |
| 2026-05-07 21:15 | 33.71985 | -15.58592 | 25021 ft | 448 kts | 231° |
| 2026-05-07 21:16 | 33.69807 | -15.61214 | 23874 ft | 451 kts | 231° |
| 2026-05-07 21:16 | 33.67576 | -15.63887 | 22641 ft | 452 kts | 230° |
| 2026-05-07 21:16 | 33.65352 | -15.66515 | 21927 ft | 443 kts | 230° |
| 2026-05-07 21:16 | 33.63195 | -15.69035 | 21706 ft | 424 kts | 230° |
| 2026-05-07 21:17 | 33.61080 | -15.71494 | 20845 ft | 421 kts | 230° |
| 2026-05-07 21:17 | 33.58991 | -15.73931 | 20075 ft | 418 kts | 230° |
| 2026-05-07 21:17 | 33.56915 | -15.76358 | 19350 ft | 413 kts | 230° |
| 2026-05-07 21:17 | 33.54869 | -15.78757 | 18660 ft | 409 kts | 230° |
| 2026-05-07 21:18 | 33.52845 | -15.81127 | 17956 ft | 404 kts | 230° |
| 2026-05-07 21:18 | 33.50842 | -15.83472 | 17177 ft | 401 kts | 229° |
| 2026-05-07 21:18 | 33.48848 | -15.85804 | 16416 ft | 398 kts | 229° |
| 2026-05-07 21:18 | 33.46870 | -15.88117 | 15661 ft | 396 kts | 229° |
| 2026-05-07 21:19 | 33.44907 | -15.90408 | 14945 ft | 393 kts | 229° |
| 2026-05-07 21:19 | 33.42980 | -15.92660 | 14210 ft | 391 kts | 229° |
| 2026-05-07 21:19 | 33.41667 | -15.94192 | 13744 ft | 390 kts | 229° |
| 2026-05-07 21:19 | 33.39104 | -15.97181 | 12724 ft | 387 kts | 228° |
| 2026-05-07 21:20 | 33.37182 | -15.99420 | 12008 ft | 384 kts | 228° |
| 2026-05-07 21:20 | 33.35284 | -16.01632 | 11289 ft | 380 kts | 228° |
| 2026-05-07 21:20 | 33.33392 | -16.03833 | 10596 ft | 377 kts | 227° |
| 2026-05-07 21:20 | 33.32124 | -16.05304 | 10130 ft | 376 kts | 227° |
| 2026-05-07 21:21 | 33.29651 | -16.08169 | 9159 ft | 372 kts | 227° |
| 2026-05-07 21:21 | 33.28425 | -16.09588 | 8689 ft | 369 kts | 227° |
| 2026-05-07 21:21 | 33.26597 | -16.11705 | 7991 ft | 365 kts | 227° |
| 2026-05-07 21:21 | 33.24784 | -16.13803 | 7295 ft | 360 kts | 226° |
| 2026-05-07 21:22 | 33.22989 | -16.15881 | 6605 ft | 356 kts | 226° |
| 2026-05-07 21:22 | 33.21223 | -16.17926 | 5887 ft | 352 kts | 226° |
| 2026-05-07 21:22 | 33.19470 | -16.19954 | 5139 ft | 348 kts | 226° |
| 2026-05-07 21:22 | 33.17746 | -16.21948 | 4407 ft | 343 kts | 226° |
| 2026-05-07 21:23 | 33.16064 | -16.23888 | 4087 ft | 328 kts | 226° |
| 2026-05-07 21:23 | 33.14469 | -16.25725 | 3998 ft | 308 kts | 226° |
| 2026-05-07 21:23 | 33.12981 | -16.27438 | 3995 ft | 286 kts | 225° |
| 2026-05-07 21:23 | 33.11599 | -16.29031 | 4006 ft | 266 kts | 226° |
| 2026-05-07 21:24 | 33.10301 | -16.30524 | 4007 ft | 256 kts | 225° |
| 2026-05-07 21:24 | 33.09023 | -16.31998 | 4005 ft | 254 kts | 226° |
| 2026-05-07 21:24 | 33.07759 | -16.33456 | 3683 ft | 252 kts | 225° |
| 2026-05-07 21:24 | 33.06519 | -16.34884 | 3324 ft | 250 kts | 225° |
| 2026-05-07 21:25 | 33.05270 | -16.36323 | 3021 ft | 249 kts | 225° |
| 2026-05-07 21:25 | 33.04014 | -16.37770 | 3013 ft | 254 kts | 225° |
| 2026-05-07 21:25 | 33.02636 | -16.39360 | 3020 ft | 297 kts | 225° |
| 2026-05-07 21:25 | 33.01074 | -16.41162 | 3015 ft | 321 kts | 224° |
| 2026-05-07 21:26 | 32.99450 | -16.43031 | 3014 ft | 326 kts | 224° |
| 2026-05-07 21:26 | 32.97816 | -16.44909 | 3017 ft | 326 kts | 225° |
| 2026-05-07 21:26 | 32.96185 | -16.46783 | 3016 ft | 326 kts | 224° |
| 2026-05-07 21:26 | 32.94544 | -16.48667 | 3016 ft | 327 kts | 224° |
| 2026-05-07 21:27 | 32.92908 | -16.50546 | 3019 ft | 327 kts | 224° |
| 2026-05-07 21:27 | 32.91265 | -16.52429 | 3017 ft | 327 kts | 224° |
| 2026-05-07 21:27 | 32.89629 | -16.54303 | 3017 ft | 327 kts | 224° |
| 2026-05-07 21:27 | 32.87993 | -16.56177 | 3017 ft | 326 kts | 225° |
| 2026-05-07 21:28 | 32.86376 | -16.58027 | 3011 ft | 326 kts | 224° |
| 2026-05-07 21:28 | 32.84738 | -16.59903 | 3013 ft | 327 kts | 225° |
| 2026-05-07 21:28 | 32.83116 | -16.61789 | 3013 ft | 327 kts | 225° |
| 2026-05-07 21:28 | 32.81555 | -16.63622 | 3000 ft | 298 kts | 226° |
| 2026-05-07 21:29 | 32.80167 | -16.65253 | 3008 ft | 263 kts | 227° |
| 2026-05-07 21:29 | 32.78941 | -16.66686 | 3004 ft | 230 kts | 227° |
| 2026-05-07 21:29 | 32.77885 | -16.67926 | 2976 ft | 200 kts | 228° |
| 2026-05-07 21:29 | 32.76945 | -16.69059 | 2655 ft | 182 kts | 229° |
| 2026-05-07 21:30 | 32.76155 | -16.70078 | 2355 ft | 158 kts | 231° |
| 2026-05-07 21:30 | 32.75385 | -16.70896 | 2048 ft | 144 kts | 226° |
| 2026-05-07 21:30 | 32.74671 | -16.71719 | 1637 ft | 143 kts | 229° |
| 2026-05-07 21:30 | 32.73972 | -16.72541 | 1242 ft | 142 kts | 228° |
| 2026-05-07 21:31 | 32.73277 | -16.73333 | 880 ft | 134 kts | 228° |
| 2026-05-07 21:31 | 32.72643 | -16.74125 | 621 ft | 128 kts | 223° |
| 2026-05-07 21:31 | 32.71997 | -16.74869 | 513 ft | 129 kts | 228° |
| 2026-05-07 21:31 | 32.71347 | -16.75617 | 383 ft | 129 kts | 226° |
| 2026-05-07 21:32 | 32.70702 | -16.76372 | 237 ft | 130 kts | 226° |
| 2026-05-07 21:32 | 32.70074 | -16.77110 | 179 ft | 118 kts | 224° |
| 2026-05-07 21:32 | 32.69674 | -16.77581 | 176 ft | 40 kts | 225° |
| 2026-05-07 21:32 | 32.69591 | -16.77678 | 176 ft | 13 kts | 225° |
| 2026-05-07 21:33 | 32.69514 | -16.77769 | 176 ft | 16 kts | 224° |
| 2026-05-07 21:33 | 32.69432 | -16.77864 | 176 ft | 17 kts | 224° |
| 2026-05-07 21:33 | 32.69338 | -16.77954 | 176 ft | 18 kts | 193° |
| 2026-05-07 21:33 | 32.69293 | -16.77869 | 176 ft | 14 kts | 70° |
| 2026-05-07 21:34 | 32.69332 | -16.77775 | 176 ft | 11 kts | 89° |
| 2026-05-07 21:34 | 32.69319 | -16.77743 | 176 ft | 1 kts | 131° |
| 2026-05-07 21:34 | 32.69316 | -16.77740 | 176 ft | 1 kts | 133° |
| 2026-05-07 21:34 | 32.69308 | -16.77730 | 176 ft | 0 kts | 136° |